SLCL weather

Collpani Airport
Abaroa, Oruro Department, Bolivia

Public forecast

Using degrees Celsius for public forecast. Weather courtesy of forecast.io.

METAR (pilot weather report)

Report is more than 6 hours old.

Closest report is Juan Mendoza Airport, 58.2 nm (107.8 km) NNW. Retrieved 2019/03/25 18:00 UTC (16 hours ago):

SLOR 251800Z 32005KT 9999 FEW020 FEW023CB BKN200 18/01 Q1033

TAF (pilot weather forecast)

Forecast is more than 12 hours old.

Closest forecast is Juan Mendoza Airport, 58.2 nm (107.8 km) NNW. Retrieved 2018/10/09 18:12 UTC (6 months ago):

TAF COR TAF SLOR 091600Z 0918/1018 22012KT 9999 SCT020 FEW023CB TX20/0920Z TN01/1010Z BECMG 0923/1001 04006KT NSC BECMG 1012/1014 32010KT